Time;durP1;ratioP1;P1;durP2;ratioP2;P2;SDS_P1;SDS_P2;PMS_P1;PMS_P2;Temp;Humidity;BMP_temperature;BMP_pressure;BME280_temperature;BME280_humidity;BME280_pressure;Samples;Min_cycle;Max_cycle;Signal;HPM_P1;HPM_P2
2023/08/26 00:01:57;;;;;;;7.25;5.93;;;19.80;99.90;;;;;;5053029;28;20584;-44
2023/08/26 00:04:23;;;;;;;6.75;6.05;;;19.80;99.90;;;;;;5046593;28;20377;-43
2023/08/26 00:06:49;;;;;;;7.07;6.18;;;19.80;99.90;;;;;;5055708;28;20033;-43
2023/08/26 00:09:15;;;;;;;6.40;5.80;;;19.80;99.90;;;;;;5046174;28;20021;-43
2023/08/26 00:11:41;;;;;;;9.05;6.22;;;19.70;99.90;;;;;;5056002;28;20035;-43
2023/08/26 00:14:07;;;;;;;6.75;6.07;;;19.70;99.90;;;;;;5045575;28;20021;-44
2023/08/26 00:16:33;;;;;;;5.30;4.80;;;19.70;99.90;;;;;;5055460;28;20464;-44
2023/08/26 00:19:02;;;;;;;5.72;5.20;;;19.70;99.90;;;;;;5045100;28;20017;-43
2023/08/26 00:21:31;;;;;;;8.75;5.45;;;19.60;99.90;;;;;;5057217;28;20149;-44
2023/08/26 00:23:58;;;;;;;8.20;6.10;;;19.50;99.90;;;;;;5048873;28;20748;-44
2023/08/26 00:26:24;;;;;;;5.47;4.97;;;19.50;99.90;;;;;;5052147;28;20036;-43
2023/08/26 00:28:49;;;;;;;5.60;5.10;;;19.50;99.90;;;;;;5063715;28;20029;-42
2023/08/26 00:31:27;;;;;;;5.85;5.25;;;19.50;99.90;;;;;;5052714;28;20029;-43
2023/08/26 00:33:53;;;;;;;5.95;5.35;;;19.50;99.90;;;;;;5064135;28;20035;-43
2023/08/26 00:36:21;;;;;;;5.90;5.15;;;19.50;99.90;;;;;;5054453;28;20025;-43
2023/08/26 00:38:47;;;;;;;5.25;4.75;;;19.50;99.90;;;;;;5061329;28;20021;-43
2023/08/26 00:41:16;;;;;;;7.65;5.25;;;19.50;99.90;;;;;;5056001;28;20546;-43
2023/08/26 00:43:41;;;;;;;5.90;4.78;;;19.40;99.90;;;;;;5060068;28;20028;-43
2023/08/26 00:46:09;;;;;;;5.82;5.10;;;19.40;99.90;;;;;;5058471;28;20036;-43
2023/08/26 00:48:35;;;;;;;4.95;4.45;;;19.40;99.90;;;;;;5057476;28;20547;-43
2023/08/26 00:51:04;;;;;;;4.65;3.80;;;19.50;99.90;;;;;;5061040;28;20047;-43
2023/08/26 00:53:30;;;;;;;4.72;3.83;;;19.50;99.90;;;;;;5054401;28;20646;-41
2023/08/26 00:55:56;;;;;;;4.05;3.65;;;19.40;99.90;;;;;;5062820;28;20024;-43
2023/08/26 00:58:21;;;;;;;5.47;4.47;;;19.40;99.90;;;;;;5052127;28;20048;-43
2023/08/26 01:00:48;;;;;;;5.55;3.85;;;19.30;99.90;;;;;;5062182;28;20027;-43
2023/08/26 01:03:14;;;;;;;4.15;3.60;;;19.30;99.90;;;;;;5052751;28;20021;-43
2023/08/26 01:05:40;;;;;;;4.10;3.70;;;19.20;99.90;;;;;;5063161;28;20456;-43
2023/08/26 01:08:06;;;;;;;3.90;3.50;;;19.20;99.90;;;;;;5050668;28;20028;-42
2023/08/26 01:10:44;;;;;;;4.20;3.50;;;19.20;99.90;;;;;;5063933;28;20040;-42
2023/08/26 01:13:14;;;;;;;5.57;4.25;;;19.10;99.90;;;;;;5050383;28;20021;-42
2023/08/26 01:15:46;;;;;;;4.65;3.63;;;19.10;99.90;;;;;;5063994;28;20048;-42
2023/08/26 01:18:13;;;;;;;4.32;3.63;;;19.10;99.90;;;;;;5051193;28;20087;-43
2023/08/26 01:20:46;;;;;;;4.88;3.70;;;19.10;99.90;;;;;;5063355;28;20065;-43
2023/08/26 01:23:30;;;;;;;5.55;4.00;;;19.10;99.90;;;;;;5051186;28;20044;-42
2023/08/26 01:25:56;;;;;;;4.10;3.70;;;19.10;99.90;;;;;;5044533;28;20032;-42
2023/08/26 01:28:21;;;;;;;6.15;3.85;;;19.20;99.90;;;;;;5054669;28;20396;-43
2023/08/26 01:30:49;;;;;;;5.05;3.53;;;19.20;99.90;;;;;;5044159;28;20068;-43
2023/08/26 01:33:24;;;;;;;4.63;3.75;;;19.20;99.90;;;;;;5053520;28;20039;-43
2023/08/26 01:35:58;;;;;;;5.47;4.10;;;19.20;99.90;;;;;;5044804;28;20028;-43
2023/08/26 01:38:25;;;;;;;5.07;3.60;;;19.20;99.90;;;;;;5052738;28;20467;-43
2023/08/26 01:40:56;;;;;;;6.72;3.78;;;19.10;99.90;;;;;;5045307;28;20086;-43
2023/08/26 01:43:23;;;;;;;3.22;2.92;;;19.10;99.90;;;;;;5051343;28;20036;-43
2023/08/26 01:45:51;;;;;;;3.50;3.20;;;19.10;99.90;;;;;;5048713;28;20127;-43
2023/08/26 01:48:16;;;;;;;3.67;3.30;;;19.10;99.90;;;;;;5048437;28;20029;-43
2023/08/26 01:50:42;;;;;;;6.47;3.45;;;19.00;99.90;;;;;;5050707;28;20029;-44
2023/08/26 01:53:08;;;;;;;3.13;2.83;;;19.00;99.90;;;;;;5046020;28;20075;-41
2023/08/26 01:55:34;;;;;;;3.05;2.75;;;19.00;99.90;;;;;;5051452;28;20504;-42
2023/08/26 01:58:00;;;;;;;4.60;3.60;;;18.90;99.90;;;;;;5044248;28;20390;-43
2023/08/26 02:00:29;;;;;;;5.88;4.10;;;18.90;99.90;;;;;;5054788;28;20429;-43
2023/08/26 02:02:54;;;;;;;4.53;4.10;;;18.80;99.90;;;;;;5044501;28;20039;-43
2023/08/26 02:05:20;;;;;;;5.53;4.35;;;18.80;99.90;;;;;;5054090;28;20025;-43
2023/08/26 02:07:45;;;;;;;4.93;4.22;;;18.70;99.90;;;;;;5043897;28;20091;-43
2023/08/26 02:10:12;;;;;;;5.13;4.63;;;18.70;99.90;;;;;;5041952;28;20028;-43
2023/08/26 02:12:37;;;;;;;5.00;4.22;;;18.60;99.90;;;;;;5044021;28;20044;-42
2023/08/26 02:15:03;;;;;;;7.65;4.63;;;18.60;99.90;;;;;;5055111;28;20036;-44
2023/08/26 02:17:33;;;;;;;6.90;3.88;;;18.60;99.90;;;;;;5042590;28;20116;-42
2023/08/26 02:20:20;;;;;;;4.43;3.80;;;18.50;99.90;;;;;;5053972;28;20103;-43
2023/08/26 02:22:54;;;;;;;4.88;3.72;;;18.50;99.90;;;;;;5043375;28;20560;-42
2023/08/26 02:25:20;;;;;;;6.30;3.90;;;18.50;99.90;;;;;;5046344;28;20397;-42
2023/08/26 02:27:45;;;;;;;6.25;3.55;;;18.40;99.90;;;;;;5063809;28;20017;-42
2023/08/26 02:30:11;;;;;;;5.88;3.40;;;18.40;99.90;;;;;;5052356;28;20380;-43
2023/08/26 02:32:37;;;;;;;4.05;3.33;;;18.30;99.90;;;;;;5060875;28;20090;-43
2023/08/26 02:35:03;;;;;;;5.07;3.63;;;18.30;99.90;;;;;;5055209;28;20060;-43
2023/08/26 02:37:28;;;;;;;7.22;3.70;;;18.30;99.90;;;;;;5057612;28;20032;-44
2023/08/26 02:39:55;;;;;;;4.57;3.60;;;18.20;99.90;;;;;;5057727;28;20028;-43
2023/08/26 02:42:21;;;;;;;4.25;3.10;;;18.10;99.90;;;;;;5055243;28;20035;-42
2023/08/26 02:44:46;;;;;;;7.82;3.72;;;18.10;99.90;;;;;;5059485;28;20393;-42
2023/08/26 02:47:12;;;;;;;4.85;3.30;;;18.10;99.90;;;;;;5052234;28;20025;-43
2023/08/26 02:49:37;;;;;;;4.97;3.72;;;18.00;99.90;;;;;;5061749;28;20029;-42
2023/08/26 02:52:03;;;;;;;5.22;3.65;;;18.00;99.90;;;;;;5052347;28;20247;-44
2023/08/26 02:54:29;;;;;;;3.85;3.45;;;17.90;99.90;;;;;;5065583;28;20032;-41
2023/08/26 02:56:54;;;;;;;5.45;3.50;;;17.80;99.90;;;;;;5054071;28;20377;-42
2023/08/26 02:59:23;;;;;;;3.63;2.90;;;17.80;99.90;;;;;;5065487;28;20027;-42
2023/08/26 03:01:58;;;;;;;3.45;3.10;;;17.80;99.90;;;;;;5053692;28;20040;-42
2023/08/26 03:04:24;;;;;;;6.03;3.30;;;17.80;99.90;;;;;;5065998;28;20024;-43
2023/08/26 03:06:49;;;;;;;3.83;2.95;;;17.80;99.90;;;;;;5052966;28;20079;-43
2023/08/26 03:09:15;;;;;;;4.20;2.90;;;17.80;99.90;;;;;;5065894;28;20013;-43
2023/08/26 03:11:40;;;;;;;4.20;2.88;;;17.70;99.90;;;;;;5055445;28;20235;-43
2023/08/26 03:14:06;;;;;;;4.47;3.03;;;17.70;99.90;;;;;;5063815;28;20024;-43
2023/08/26 03:16:35;;;;;;;4.60;2.70;;;17.70;99.90;;;;;;5058111;28;20064;-43
2023/08/26 03:19:00;;;;;;;4.35;2.55;;;17.70;99.90;;;;;;5062069;28;20042;-43
2023/08/26 03:21:32;;;;;;;4.93;2.72;;;17.70;99.90;;;;;;5059017;28;20037;-43
2023/08/26 03:23:58;;;;;;;4.90;2.88;;;17.70;99.90;;;;;;5057149;28;20071;-43
2023/08/26 03:26:27;;;;;;;4.05;2.60;;;17.60;99.90;;;;;;5049235;28;20028;-42
2023/08/26 03:28:52;;;;;;;4.07;2.58;;;17.60;99.90;;;;;;5053870;28;20025;-43
2023/08/26 03:31:18;;;;;;;3.90;2.20;;;17.60;99.90;;;;;;5047232;28;20531;-42
2023/08/26 03:33:43;;;;;;;5.80;2.58;;;17.50;99.90;;;;;;5054891;28;20500;-42
2023/08/26 03:36:09;;;;;;;3.80;2.92;;;17.50;99.90;;;;;;5046653;28;20028;-42
2023/08/26 03:38:35;;;;;;;4.25;3.05;;;17.40;99.90;;;;;;5056713;28;20488;-42
2023/08/26 03:41:05;;;;;;;5.15;3.13;;;17.40;99.90;;;;;;5044113;28;20043;-42
2023/08/26 03:43:31;;;;;;;4.97;3.20;;;17.30;99.90;;;;;;5056778;28;20036;-42
2023/08/26 03:45:56;;;;;;;3.95;3.47;;;17.30;99.90;;;;;;5045359;28;20029;-42
2023/08/26 03:48:22;;;;;;;3.78;3.00;;;17.20;99.90;;;;;;5057443;28;20047;-43
2023/08/26 03:50:58;;;;;;;3.20;2.47;;;17.10;99.90;;;;;;5046320;28;20582;-42
2023/08/26 03:53:25;;;;;;;4.15;2.80;;;17.10;99.90;;;;;;5058141;28;20031;-42
2023/08/26 03:55:50;;;;;;;5.45;2.90;;;16.90;99.90;;;;;;5045486;28;20101;-43
2023/08/26 03:58:16;;;;;;;5.60;2.95;;;16.90;99.90;;;;;;5055922;28;20048;-43
2023/08/26 04:00:42;;;;;;;5.00;3.10;;;16.80;99.90;;;;;;5046556;28;20064;-43
2023/08/26 04:03:10;;;;;;;4.55;2.92;;;16.70;99.90;;;;;;5052365;28;20029;-43
2023/08/26 04:05:36;;;;;;;3.13;2.53;;;16.60;99.90;;;;;;5049121;28;20048;-43
2023/08/26 04:08:05;;;;;;;4.97;2.35;;;16.50;99.90;;;;;;5050501;28;20361;-44
2023/08/26 04:10:30;;;;;;;6.65;2.50;;;16.40;99.90;;;;;;5049300;28;20479;-43
2023/08/26 04:13:24;;;;;;;2.58;2.30;;;16.40;99.90;;;;;;5049472;28;20123;-43
2023/08/26 04:15:53;;;;;;;2.58;2.33;;;16.30;99.90;;;;;;5048348;28;20483;-43
2023/08/26 04:18:19;;;;;;;3.08;2.25;;;16.20;99.90;;;;;;5049900;28;20429;-43
2023/08/26 04:20:45;;;;;;;3.47;2.13;;;16.20;99.90;;;;;;5051511;28;20029;-43
2023/08/26 04:23:11;;;;;;;2.55;2.30;;;16.10;99.90;;;;;;5046764;28;20033;-43
2023/08/26 04:25:38;;;;;;;3.35;2.30;;;16.10;99.90;;;;;;5048961;28;20029;-43
2023/08/26 04:28:04;;;;;;;3.03;2.60;;;16.00;99.90;;;;;;5045481;28;20025;-43
2023/08/26 04:30:30;;;;;;;3.15;2.33;;;16.00;99.90;;;;;;5055723;28;20025;-43
2023/08/26 04:32:56;;;;;;;2.70;2.10;;;15.90;99.90;;;;;;5045720;28;20040;-43
2023/08/26 04:35:22;;;;;;;3.65;2.35;;;15.90;99.90;;;;;;5055238;28;20021;-43
2023/08/26 04:37:47;;;;;;;5.05;2.78;;;15.90;99.90;;;;;;5044196;28;20104;-42
2023/08/26 04:40:13;;;;;;;4.03;2.45;;;15.90;99.90;;;;;;5056079;28;20025;-43
2023/08/26 04:42:39;;;;;;;2.78;2.33;;;15.80;99.90;;;;;;5044622;28;20032;-43
2023/08/26 04:45:05;;;;;;;4.28;2.13;;;15.80;99.90;;;;;;5055380;28;20028;-42
2023/08/26 04:47:31;;;;;;;3.40;2.33;;;15.80;99.90;;;;;;5044536;28;20052;-42
2023/08/26 04:49:57;;;;;;;2.95;2.20;;;15.70;99.90;;;;;;5054179;28;20464;-43
2023/08/26 04:52:22;;;;;;;3.70;2.08;;;15.70;99.90;;;;;;5050168;28;20115;-42
2023/08/26 04:54:48;;;;;;;4.35;2.08;;;15.60;99.90;;;;;;5055842;28;20029;-43
2023/08/26 04:57:13;;;;;;;3.38;2.10;;;15.60;99.90;;;;;;5059311;28;20838;-43
2023/08/26 04:59:39;;;;;;;2.30;2.08;;;15.60;99.90;;;;;;5057718;28;20021;-44
2023/08/26 05:02:07;;;;;;;5.13;2.00;;;15.60;99.90;;;;;;5056304;28;20035;-43
2023/08/26 05:04:33;;;;;;;4.07;1.75;;;15.60;99.90;;;;;;5060366;28;20025;-42
2023/08/26 05:06:59;;;;;;;2.45;1.83;;;15.60;99.90;;;;;;5054199;28;20128;-43
2023/08/26 05:09:25;;;;;;;5.55;2.20;;;15.60;99.90;;;;;;5062672;28;20100;-42
2023/08/26 05:11:50;;;;;;;3.20;2.10;;;15.50;99.90;;;;;;5052552;28;20807;-42
2023/08/26 05:14:16;;;;;;;2.78;2.22;;;15.50;99.90;;;;;;5061512;28;20033;-43
2023/08/26 05:16:41;;;;;;;3.38;2.10;;;15.50;99.90;;;;;;5052138;28;20078;-44
2023/08/26 05:19:07;;;;;;;4.88;2.50;;;15.50;99.90;;;;;;5062814;28;20028;-44
2023/08/26 05:21:33;;;;;;;3.40;1.73;;;15.40;99.90;;;;;;5051192;28;20016;-44
2023/08/26 05:24:00;;;;;;;2.70;1.70;;;15.40;99.90;;;;;;5061785;28;20028;-43
2023/08/26 05:26:25;;;;;;;4.00;2.08;;;15.40;99.90;;;;;;5056147;28;20039;-42
2023/08/26 05:28:54;;;;;;;2.60;1.67;;;15.40;99.90;;;;;;5044367;28;20029;-42
2023/08/26 05:31:20;;;;;;;5.55;2.33;;;15.40;99.90;;;;;;5054269;28;20036;-42
2023/08/26 05:33:45;;;;;;;3.28;2.05;;;15.50;99.90;;;;;;5044482;28;20268;-43
2023/08/26 05:36:17;;;;;;;4.20;2.10;;;15.50;99.90;;;;;;5051448;28;20032;-43
2023/08/26 05:38:43;;;;;;;2.97;2.00;;;15.50;99.90;;;;;;5047384;28;20078;-44
2023/08/26 05:41:08;;;;;;;3.50;1.83;;;15.60;99.90;;;;;;5048983;28;20032;-43
2023/08/26 05:43:34;;;;;;;3.58;1.77;;;15.60;99.90;;;;;;5049887;28;20028;-42
2023/08/26 05:46:00;;;;;;;3.63;1.77;;;15.60;99.90;;;;;;5046930;28;20021;-42
2023/08/26 05:48:25;;;;;;;3.05;1.92;;;15.70;99.90;;;;;;5051995;28;20032;-43
2023/08/26 05:50:51;;;;;;;4.57;1.90;;;15.70;99.90;;;;;;5044739;28;20053;-43
2023/08/26 05:53:16;;;;;;;1.92;1.38;;;15.70;99.90;;;;;;5053890;28;20017;-43
2023/08/26 05:55:42;;;;;;;2.53;1.70;;;15.70;99.90;;;;;;5043986;28;20028;-43
2023/08/26 05:58:07;;;;;;;4.05;1.73;;;15.70;99.90;;;;;;5052450;28;20052;-42
2023/08/26 06:00:36;;;;;;;2.72;1.83;;;15.70;99.90;;;;;;5043423;28;20048;-41
2023/08/26 06:03:02;;;;;;;3.42;2.00;;;15.70;99.90;;;;;;5049497;28;20119;-42
2023/08/26 06:05:27;;;;;;;4.28;1.98;;;15.70;99.90;;;;;;5064304;28;20021;-42
2023/08/26 06:07:53;;;;;;;4.28;2.33;;;15.80;99.90;;;;;;5050874;28;20064;-42
2023/08/26 06:10:29;;;;;;;2.10;1.70;;;15.80;99.90;;;;;;5062394;28;20012;-42
2023/08/26 06:12:54;;;;;;;2.03;1.40;;;15.80;99.90;;;;;;5051126;28;20137;-42
2023/08/26 06:15:20;;;;;;;3.85;1.60;;;15.80;99.90;;;;;;5041852;28;20720;-43
2023/08/26 06:17:46;;;;;;;2.13;1.55;;;15.80;99.90;;;;;;5042741;28;20067;-43
2023/08/26 06:20:11;;;;;;;5.82;1.80;;;15.80;99.90;;;;;;5059599;28;20036;-42
2023/08/26 06:22:45;;;;;;;2.53;1.45;;;15.80;99.90;;;;;;5055183;28;20082;-43
2023/08/26 06:25:11;;;;;;;3.25;2.00;;;15.80;99.90;;;;;;5047162;28;20440;-42
2023/08/26 06:27:36;;;;;;;3.92;1.83;;;15.90;99.90;;;;;;5052192;28;20024;-43
2023/08/26 06:30:05;;;;;;;5.55;1.90;;;16.00;99.90;;;;;;5052472;28;20102;-43
2023/08/26 06:32:31;;;;;;;3.83;1.80;;;16.00;99.90;;;;;;5050138;28;20157;-43
2023/08/26 06:34:59;;;;;;;4.30;1.95;;;16.10;99.90;;;;;;5055569;28;20055;-43
2023/08/26 06:37:25;;;;;;;3.95;1.92;;;16.10;99.90;;;;;;5047517;28;20029;-43
2023/08/26 06:39:50;;;;;;;2.00;1.63;;;16.10;99.90;;;;;;5047177;28;20017;-42
2023/08/26 06:42:16;;;;;;;4.32;1.70;;;16.20;99.90;;;;;;5046773;28;20458;-43
2023/08/26 06:44:42;;;;;;;3.40;1.80;;;16.20;99.90;;;;;;5057210;28;20047;-43
2023/08/26 06:47:09;;;;;;;2.20;1.65;;;16.20;99.90;;;;;;5046586;28;20063;-43
2023/08/26 06:49:34;;;;;;;4.60;1.60;;;16.30;99.90;;;;;;5059722;28;20029;-43
2023/08/26 06:52:00;;;;;;;3.15;1.83;;;16.30;99.90;;;;;;5045744;28;20526;-42
2023/08/26 06:54:26;;;;;;;2.63;1.38;;;16.30;99.90;;;;;;5059346;28;20067;-43
2023/08/26 06:56:51;;;;;;;2.95;1.80;;;16.40;99.90;;;;;;5046599;28;20036;-42
2023/08/26 06:59:26;;;;;;;2.20;1.83;;;16.40;99.90;;;;;;5050482;28;20049;-43
2023/08/26 07:01:52;;;;;;;2.35;1.83;;;16.40;99.90;;;;;;5066175;28;20037;-42
2023/08/26 07:04:17;;;;;;;3.60;1.92;;;16.40;99.90;;;;;;5055086;28;20028;-42
2023/08/26 07:06:43;;;;;;;2.72;1.60;;;16.40;99.90;;;;;;5063657;28;20020;-41
2023/08/26 07:09:10;;;;;;;3.08;1.67;;;16.50;99.90;;;;;;5058434;28;20052;-42
2023/08/26 07:11:36;;;;;;;2.42;1.70;;;16.50;99.90;;;;;;5060047;28;20908;-42
2023/08/26 07:14:01;;;;;;;3.10;1.83;;;16.50;99.90;;;;;;5061109;28;20035;-42
2023/08/26 07:16:28;;;;;;;1.60;1.50;;;16.60;99.90;;;;;;5058378;28;20021;-42
2023/08/26 07:18:54;;;;;;;3.22;1.92;;;16.60;99.90;;;;;;5063387;28;20040;-42
2023/08/26 07:21:25;;;;;;;6.05;2.40;;;16.60;99.90;;;;;;5055957;28;20048;-42
2023/08/26 07:23:51;;;;;;;2.78;1.70;;;16.70;99.90;;;;;;5064916;28;20024;-43
2023/08/26 07:26:17;;;;;;;3.00;2.20;;;16.70;99.90;;;;;;5053488;28;20020;-42
2023/08/26 07:28:45;;;;;;;2.33;1.70;;;16.80;99.90;;;;;;5064938;28;20028;-43
2023/08/26 07:31:14;;;;;;;3.85;2.17;;;16.90;99.90;;;;;;5054128;28;20532;-42
2023/08/26 07:33:39;;;;;;;2.05;1.60;;;16.90;99.90;;;;;;5065782;28;20103;-42
2023/08/26 07:36:06;;;;;;;5.82;2.03;;;16.90;99.90;;;;;;5053214;28;20258;-43
2023/08/26 07:38:33;;;;;;;2.83;1.80;;;17.00;99.90;;;;;;5065976;28;20063;-42
2023/08/26 07:40:58;;;;;;;2.78;1.73;;;17.00;99.90;;;;;;5052304;28;20025;-42
2023/08/26 07:43:24;;;;;;;2.08;1.40;;;17.10;99.90;;;;;;5066137;28;20025;-42
2023/08/26 07:45:50;;;;;;;2.65;1.50;;;17.20;99.90;;;;;;5054789;28;20511;-42
2023/08/26 07:48:18;;;;;;;2.13;1.80;;;17.30;99.90;;;;;;5062599;28;20031;-43
2023/08/26 07:50:44;;;;;;;2.35;1.63;;;17.50;99.90;;;;;;5056684;28;20116;-42
2023/08/26 07:53:09;;;;;;;3.17;1.77;;;17.70;99.90;;;;;;5061321;28;20205;-43
2023/08/26 07:55:38;;;;;;;3.58;1.67;;;17.90;99.90;;;;;;5058945;28;20014;-43
2023/08/26 07:58:05;;;;;;;2.72;1.80;;;18.10;99.90;;;;;;5058691;28;20401;-42
2023/08/26 08:00:31;;;;;;;3.33;1.50;;;18.20;99.90;;;;;;5060968;28;20025;-43
2023/08/26 08:02:56;;;;;;;3.15;1.30;;;18.30;99.90;;;;;;5056339;28;20032;-44
2023/08/26 08:05:22;;;;;;;3.35;1.60;;;18.40;99.90;;;;;;5063428;28;20027;-43
2023/08/26 08:07:47;;;;;;;3.85;1.65;;;18.40;99.90;;;;;;5053508;28;20028;-44
2023/08/26 08:10:13;;;;;;;2.80;1.40;;;18.40;99.90;;;;;;5062718;28;20098;-43
2023/08/26 08:12:39;;;;;;;3.60;2.00;;;18.50;99.90;;;;;;5053278;28;20101;-43
2023/08/26 08:15:06;;;;;;;2.53;1.45;;;18.40;99.90;;;;;;5063837;28;20472;-43
2023/08/26 08:17:32;;;;;;;2.10;1.67;;;18.40;99.90;;;;;;5053367;28;20060;-43
2023/08/26 08:19:58;;;;;;;4.20;1.50;;;18.30;99.90;;;;;;5065249;28;20055;-43
2023/08/26 08:22:35;;;;;;;2.78;1.38;;;18.30;99.90;;;;;;5050919;28;20025;-44
2023/08/26 08:25:01;;;;;;;2.35;1.30;;;18.30;99.90;;;;;;5055556;28;20079;-42
2023/08/26 08:27:26;;;;;;;2.45;1.50;;;18.30;99.90;;;;;;5057729;28;20025;-43
2023/08/26 08:29:52;;;;;;;2.80;1.70;;;18.40;99.90;;;;;;5044177;28;20037;-42
2023/08/26 08:32:17;;;;;;;2.33;1.30;;;18.60;99.90;;;;;;5054180;28;20036;-42
2023/08/26 08:34:46;;;;;;;3.33;1.50;;;18.70;99.90;;;;;;5047107;28;20685;-42
2023/08/26 08:37:11;;;;;;;3.05;1.20;;;18.60;99.90;;;;;;5050564;28;20032;-42
2023/08/26 08:39:37;;;;;;;3.28;1.60;;;18.70;99.90;;;;;;5049005;28;20029;-42
2023/08/26 08:42:05;;;;;;;3.58;1.83;;;18.70;99.90;;;;;;5049205;28;20025;-42
2023/08/26 08:44:34;;;;;;;2.90;1.20;;;18.70;99.90;;;;;;5050804;28;20104;-43
2023/08/26 08:47:04;;;;;;;2.20;1.30;;;18.80;99.90;;;;;;5047319;28;20021;-43
2023/08/26 08:49:34;;;;;;;3.30;1.30;;;18.80;99.90;;;;;;5051544;28;20021;-43
2023/08/26 08:52:02;;;;;;;2.05;1.30;;;18.80;99.90;;;;;;5044406;28;20599;-43
2023/08/26 08:54:29;;;;;;;3.80;1.40;;;18.90;99.90;;;;;;5054656;28;20210;-43
2023/08/26 08:56:55;;;;;;;1.90;1.25;;;19.00;99.90;;;;;;5044726;28;20016;-42
2023/08/26 08:59:25;;;;;;;1.98;1.40;;;19.10;99.90;;;;;;5054409;28;20568;-42
2023/08/26 09:01:57;;;;;;;2.60;1.23;;;19.20;99.90;;;;;;5044933;28;20064;-42
2023/08/26 09:04:24;;;;;;;2.67;1.33;;;19.40;99.90;;;;;;5054089;28;20476;-43
2023/08/26 09:06:51;;;;;;;4.72;1.55;;;19.60;99.90;;;;;;5044693;28;20115;-42
2023/08/26 09:09:16;;;;;;;3.70;1.52;;;19.80;99.90;;;;;;5059097;28;20605;-41
2023/08/26 09:11:42;;;;;;;2.47;1.27;;;19.80;99.90;;;;;;5043532;28;20179;-44
2023/08/26 09:14:08;;;;;;;1.40;1.20;;;19.70;99.90;;;;;;5056039;28;20071;-43
2023/08/26 09:16:36;;;;;;;2.00;1.20;;;19.70;99.90;;;;;;5044457;28;20025;-43
2023/08/26 09:19:04;;;;;;;3.53;1.50;;;19.70;99.90;;;;;;5054143;28;20027;-43
2023/08/26 09:21:30;;;;;;;4.55;1.30;;;19.70;99.90;;;;;;5044444;28;20033;-43
2023/08/26 09:23:56;;;;;;;2.25;1.30;;;19.80;99.90;;;;;;5053865;28;20425;-43
2023/08/26 09:26:26;;;;;;;1.70;0.98;;;19.80;99.90;;;;;;5044199;28;20559;-43
2023/08/26 09:28:55;;;;;;;1.58;1.00;;;19.80;99.90;;;;;;5050768;28;20099;-43
2023/08/26 09:31:20;;;;;;;1.75;1.10;;;19.80;99.90;;;;;;5047992;28;20041;-43
2023/08/26 09:33:50;;;;;;;3.15;1.27;;;19.80;99.90;;;;;;5048128;28;20028;-43
2023/08/26 09:36:17;;;;;;;2.15;1.10;;;19.80;99.90;;;;;;5050054;28;20033;-42
2023/08/26 09:38:44;;;;;;;2.83;1.10;;;19.90;99.90;;;;;;5046154;28;20383;-42
2023/08/26 09:41:10;;;;;;;2.97;1.10;;;20.00;99.90;;;;;;5051319;28;20025;-43
2023/08/26 09:43:39;;;;;;;3.47;1.08;;;20.00;99.90;;;;;;5044747;28;20036;-43
2023/08/26 09:46:08;;;;;;;2.17;0.90;;;20.00;99.90;;;;;;5042288;28;20029;-43
2023/08/26 09:48:34;;;;;;;1.23;0.80;;;20.00;99.90;;;;;;5044124;28;21226;-42
2023/08/26 09:51:00;;;;;;;2.50;1.52;;;20.00;99.90;;;;;;5054143;28;20071;-43
2023/08/26 09:53:30;;;;;;;1.67;1.00;;;20.00;99.90;;;;;;5043444;28;20522;-43
2023/08/26 09:55:59;;;;;;;2.50;1.00;;;20.00;99.90;;;;;;5055051;28;20480;-42
2023/08/26 09:58:31;;;;;;;2.55;1.00;;;20.00;99.90;;;;;;5043759;28;20381;-43
2023/08/26 10:00:57;;;;;;;1.40;0.95;;;20.10;99.90;;;;;;5051855;28;20024;-42
2023/08/26 10:03:24;;;;;;;3.10;1.10;;;20.10;99.90;;;;;;5067272;28;20025;-42
2023/08/26 10:06:01;;;;;;;1.52;1.05;;;20.20;99.90;;;;;;5054778;28;20052;-42
2023/08/26 10:08:37;;;;;;;1.50;1.08;;;20.20;99.90;;;;;;5066670;28;20047;-43
2023/08/26 10:11:07;;;;;;;1.33;1.15;;;20.30;99.90;;;;;;5053867;28;20041;-42
2023/08/26 10:13:36;;;;;;;1.67;1.00;;;20.40;99.90;;;;;;5068028;28;20086;-42
2023/08/26 10:16:03;;;;;;;1.92;1.00;;;20.50;99.90;;;;;;5053337;28;20098;-43
2023/08/26 10:18:43;;;;;;;1.95;1.00;;;20.60;99.90;;;;;;5048039;28;20024;-43
2023/08/26 10:21:11;;;;;;;3.33;1.20;;;20.80;99.90;;;;;;5058764;28;20484;-42
2023/08/26 10:23:38;;;;;;;2.20;1.02;;;20.90;99.90;;;;;;5047602;28;20515;-42
2023/08/26 10:26:05;;;;;;;1.60;0.80;;;20.90;99.90;;;;;;5052255;28;20140;-43
2023/08/26 10:28:34;;;;;;;2.33;1.30;;;21.00;99.90;;;;;;5064511;28;20032;-43
2023/08/26 10:31:00;;;;;;;1.42;0.73;;;20.90;99.90;;;;;;5058360;28;20025;-44
2023/08/26 10:33:26;;;;;;;1.98;1.00;;;20.90;99.90;;;;;;5062831;28;20040;-43
2023/08/26 10:35:59;;;;;;;2.72;1.30;;;20.90;99.90;;;;;;5060979;28;20106;-42
2023/08/26 10:38:27;;;;;;;1.60;0.98;;;20.90;99.90;;;;;;5060906;28;20031;-43
2023/08/26 10:41:11;;;;;;;2.25;0.90;;;21.00;99.90;;;;;;5062805;28;20089;-42
2023/08/26 10:44:04;;;;;;;3.97;1.13;;;21.10;99.90;;;;;;5060115;28;20039;-43
2023/08/26 10:47:02;;;;;;;2.47;0.93;;;21.30;99.90;;;;;;5058848;28;20029;-43
2023/08/26 10:49:28;;;;;;;1.95;1.00;;;21.50;99.90;;;;;;5065837;28;20024;-43
2023/08/26 10:52:18;;;;;;;2.50;1.30;;;21.60;99.90;;;;;;5056880;28;20047;-43
2023/08/26 10:54:50;;;;;;;1.80;1.20;;;21.70;99.90;;;;;;5046581;28;20025;-43
2023/08/26 10:57:15;;;;;;;1.23;0.85;;;21.60;99.90;;;;;;5045176;28;20123;-43
2023/08/26 10:59:42;;;;;;;0.90;0.80;;;21.50;99.90;;;;;;5065645;28;20559;-43
2023/08/26 11:02:11;;;;;;;3.67;1.35;;;21.50;99.90;;;;;;5056856;28;20066;-42
2023/08/26 11:04:45;;;;;;;2.05;0.90;;;21.40;99.90;;;;;;5061990;28;20024;-43
2023/08/26 11:07:18;;;;;;;1.60;0.80;;;21.40;99.90;;;;;;5058200;28;20043;-43
2023/08/26 11:09:44;;;;;;;1.42;0.80;;;21.40;99.90;;;;;;5062566;28;20028;-43
2023/08/26 11:12:29;;;;;;;2.63;0.88;;;21.40;99.90;;;;;;5056828;28;20040;-44
2023/08/26 11:15:05;;;;;;;0.95;0.70;;;21.40;99.90;;;;;;5062114;28;20480;-43
2023/08/26 11:17:37;;;;;;;1.73;0.65;;;21.40;99.90;;;;;;5056795;28;20096;-42
2023/08/26 11:20:05;;;;;;;1.20;0.60;;;21.50;99.90;;;;;;5057144;28;20104;-42
2023/08/26 11:22:31;;;;;;;1.42;0.82;;;21.70;99.90;;;;;;5051923;28;20025;-42
2023/08/26 11:24:57;;;;;;;1.55;0.93;;;21.70;99.90;;;;;;5057015;28;20016;-43
2023/08/26 11:27:22;;;;;;;2.03;1.10;;;21.90;99.90;;;;;;5062264;28;20028;-43
2023/08/26 11:29:48;;;;;;;2.25;0.80;;;21.90;99.90;;;;;;5057187;28;20033;-43
2023/08/26 11:32:14;;;;;;;1.67;0.90;;;21.90;99.90;;;;;;5062810;28;20563;-43
2023/08/26 11:34:39;;;;;;;1.33;0.85;;;21.90;99.90;;;;;;5054608;28;20032;-42
2023/08/26 11:37:05;;;;;;;2.97;1.00;;;21.90;99.90;;;;;;5064250;28;20031;-42
2023/08/26 11:39:34;;;;;;;1.08;0.70;;;21.80;99.90;;;;;;5053846;28;20062;-42
2023/08/26 11:42:10;;;;;;;1.65;0.70;;;21.80;99.90;;;;;;5065083;28;20020;-43
2023/08/26 11:44:36;;;;;;;1.15;0.70;;;21.80;99.90;;;;;;5045458;28;20021;-42
2023/08/26 11:47:04;;;;;;;1.85;1.23;;;21.80;99.90;;;;;;5044245;28;20017;-42
2023/08/26 11:49:33;;;;;;;1.25;0.80;;;21.80;99.90;;;;;;5057819;28;20029;-42
2023/08/26 11:51:59;;;;;;;2.20;0.95;;;21.80;99.90;;;;;;5045661;28;20037;-42
2023/08/26 11:54:32;;;;;;;1.65;0.60;;;21.90;99.90;;;;;;5057358;28;20070;-42
2023/08/26 11:56:58;;;;;;;1.23;0.75;;;21.90;99.90;;;;;;5044955;28;20025;-42
2023/08/26 11:59:24;;;;;;;1.20;0.70;;;22.00;99.90;;;;;;5056622;28;20131;-42
2023/08/26 12:01:52;;;;;;;2.38;0.82;;;22.10;99.90;;;;;;5045928;28;20128;-42
2023/08/26 12:04:19;;;;;;;1.13;0.68;;;22.10;99.90;;;;;;5053630;28;20389;-43
2023/08/26 12:06:45;;;;;;;2.90;0.80;;;22.10;99.90;;;;;;5055166;28;20025;-42
2023/08/26 12:09:12;;;;;;;3.42;0.50;;;22.10;99.90;;;;;;5057498;28;20491;-42
2023/08/26 12:11:43;;;;;;;0.85;0.60;;;22.10;99.90;;;;;;5060230;28;20044;-42
2023/08/26 12:14:24;;;;;;;1.10;0.60;;;22.10;99.90;;;;;;5059439;28;20020;-44
2023/08/26 12:16:59;;;;;;;2.95;0.50;;;22.20;99.90;;;;;;5059791;28;20024;-43
2023/08/26 12:19:25;;;;;;;0.57;0.50;;;22.30;99.90;;;;;;5058954;28;20388;-42
2023/08/26 12:21:51;;;;;;;0.50;0.50;;;22.30;99.90;;;;;;5058827;28;20028;-43
2023/08/26 12:24:26;;;;;;;2.28;0.80;;;22.30;99.90;;;;;;5060396;28;20377;-43
2023/08/26 12:26:53;;;;;;;1.10;0.50;;;22.40;99.90;;;;;;5045049;28;20167;-44
2023/08/26 12:29:18;;;;;;;0.40;0.40;;;22.50;99.90;;;;;;5048347;28;20025;-44
2023/08/26 12:31:50;;;;;;;1.42;0.52;;;22.70;99.90;;;;;;5054854;28;20077;-43
2023/08/26 12:34:15;;;;;;;1.00;0.50;;;22.80;99.90;;;;;;5062927;28;20024;-43
2023/08/26 12:36:45;;;;;;;8.50;1.33;;;22.80;99.90;;;;;;5052833;28;20028;-43
2023/08/26 12:39:10;;;;;;;6.50;0.80;;;22.90;99.90;;;;;;5063338;28;20025;-43
2023/08/26 12:41:38;;;;;;;0.85;0.40;;;22.90;99.90;;;;;;5052929;28;20044;-43
2023/08/26 12:44:04;;;;;;;2.65;0.60;;;22.90;99.90;;;;;;5063477;28;20111;-43
2023/08/26 12:46:30;;;;;;;0.50;0.40;;;22.90;99.90;;;;;;5047913;28;20032;-43
2023/08/26 12:48:58;;;;;;;0.85;0.50;;;22.90;99.90;;;;;;5063765;28;20135;-43
2023/08/26 12:51:24;;;;;;;2.72;0.85;;;23.00;99.90;;;;;;5051677;28;20059;-41